sensor_id;sensor_type;location;lat;lon;timestamp;temperature;humidity
14735;DHT22;7458;49.002;8.472;2022-08-16T00:00:22;21.50;72.20
14735;DHT22;7458;49.002;8.472;2022-08-16T00:02:50;21.60;72.20
14735;DHT22;7458;49.002;8.472;2022-08-16T00:05:17;21.70;72.10
14735;DHT22;7458;49.002;8.472;2022-08-16T00:07:43;21.70;72.20
14735;DHT22;7458;49.002;8.472;2022-08-16T00:10:12;22.30;72.60
14735;DHT22;7458;49.002;8.472;2022-08-16T00:12:40;21.70;72.60
14735;DHT22;7458;49.002;8.472;2022-08-16T00:15:18;21.70;72.80
14735;DHT22;7458;49.002;8.472;2022-08-16T00:17:48;21.80;72.90
14735;DHT22;7458;49.002;8.472;2022-08-16T00:20:14;21.70;73.40
14735;DHT22;7458;49.002;8.472;2022-08-16T00:22:42;21.70;73.60
14735;DHT22;7458;49.002;8.472;2022-08-16T00:25:12;21.70;73.90
14735;DHT22;7458;49.002;8.472;2022-08-16T00:27:40;21.60;73.90
14735;DHT22;7458;49.002;8.472;2022-08-16T00:30:09;21.50;74.20
14735;DHT22;7458;49.002;8.472;2022-08-16T00:32:38;21.60;74.40
14735;DHT22;7458;49.002;8.472;2022-08-16T00:35:09;21.50;74.80
14735;DHT22;7458;49.002;8.472;2022-08-16T00:37:37;21.50;75.10
14735;DHT22;7458;49.002;8.472;2022-08-16T00:40:04;21.50;75.20
14735;DHT22;7458;49.002;8.472;2022-08-16T00:42:33;21.40;75.30
14735;DHT22;7458;49.002;8.472;2022-08-16T00:45:04;21.40;75.70
14735;DHT22;7458;49.002;8.472;2022-08-16T00:47:52;21.40;76.00
14735;DHT22;7458;49.002;8.472;2022-08-16T00:50:24;21.30;76.30
14735;DHT22;7458;49.002;8.472;2022-08-16T00:52:52;21.30;76.40
14735;DHT22;7458;49.002;8.472;2022-08-16T00:55:23;21.20;76.70
14735;DHT22;7458;49.002;8.472;2022-08-16T00:57:53;21.20;76.80
14735;DHT22;7458;49.002;8.472;2022-08-16T01:00:23;21.10;77.10
14735;DHT22;7458;49.002;8.472;2022-08-16T01:02:54;21.10;77.60
14735;DHT22;7458;49.002;8.472;2022-08-16T01:05:21;21.00;77.90
14735;DHT22;7458;49.002;8.472;2022-08-16T01:07:48;20.90;78.30
14735;DHT22;7458;49.002;8.472;2022-08-16T01:10:14;20.90;78.70
14735;DHT22;7458;49.002;8.472;2022-08-16T01:12:40;20.80;78.90
14735;DHT22;7458;49.002;8.472;2022-08-16T01:15:06;20.80;78.90
14735;DHT22;7458;49.002;8.472;2022-08-16T01:17:32;20.80;78.80
14735;DHT22;7458;49.002;8.472;2022-08-16T01:20:02;20.80;79.00
14735;DHT22;7458;49.002;8.472;2022-08-16T01:23:04;20.70;78.90
14735;DHT22;7458;49.002;8.472;2022-08-16T01:25:46;20.60;79.50
14735;DHT22;7458;49.002;8.472;2022-08-16T01:28:18;20.60;79.60
14735;DHT22;7458;49.002;8.472;2022-08-16T01:30:50;20.60;79.80
14735;DHT22;7458;49.002;8.472;2022-08-16T01:33:20;20.50;80.20
14735;DHT22;7458;49.002;8.472;2022-08-16T01:36:03;20.60;80.10
14735;DHT22;7458;49.002;8.472;2022-08-16T01:38:38;20.60;79.80
14735;DHT22;7458;49.002;8.472;2022-08-16T01:41:09;20.50;80.00
14735;DHT22;7458;49.002;8.472;2022-08-16T01:43:43;20.50;80.60
14735;DHT22;7458;49.002;8.472;2022-08-16T01:46:35;20.50;80.70
14735;DHT22;7458;49.002;8.472;2022-08-16T01:49:15;20.60;81.30
14735;DHT22;7458;49.002;8.472;2022-08-16T01:51:49;20.50;81.30
14735;DHT22;7458;49.002;8.472;2022-08-16T01:54:18;20.50;81.60
14735;DHT22;7458;49.002;8.472;2022-08-16T01:56:44;20.40;82.00
14735;DHT22;7458;49.002;8.472;2022-08-16T01:59:11;20.40;82.10
14735;DHT22;7458;49.002;8.472;2022-08-16T02:01:39;20.40;82.00
14735;DHT22;7458;49.002;8.472;2022-08-16T02:04:05;20.40;82.20
14735;DHT22;7458;49.002;8.472;2022-08-16T02:06:31;20.40;82.40
14735;DHT22;7458;49.002;8.472;2022-08-16T02:08:58;20.30;82.70
14735;DHT22;7458;49.002;8.472;2022-08-16T02:11:25;20.30;83.10
14735;DHT22;7458;49.002;8.472;2022-08-16T02:13:51;20.20;83.30
14735;DHT22;7458;49.002;8.472;2022-08-16T02:16:18;20.10;83.50
14735;DHT22;7458;49.002;8.472;2022-08-16T02:18:45;20.10;84.00
14735;DHT22;7458;49.002;8.472;2022-08-16T02:21:12;20.00;84.40
14735;DHT22;7458;49.002;8.472;2022-08-16T02:23:39;19.90;84.90
14735;DHT22;7458;49.002;8.472;2022-08-16T02:26:06;19.90;84.80
14735;DHT22;7458;49.002;8.472;2022-08-16T02:28:32;20.00;84.90
14735;DHT22;7458;49.002;8.472;2022-08-16T02:31:02;20.00;84.90
14735;DHT22;7458;49.002;8.472;2022-08-16T02:33:31;20.00;84.90
14735;DHT22;7458;49.002;8.472;2022-08-16T02:35:57;19.90;85.20
14735;DHT22;7458;49.002;8.472;2022-08-16T02:38:23;19.90;85.40
14735;DHT22;7458;49.002;8.472;2022-08-16T02:40:50;19.80;85.80
14735;DHT22;7458;49.002;8.472;2022-08-16T02:43:16;19.70;86.10
14735;DHT22;7458;49.002;8.472;2022-08-16T02:45:42;19.70;86.10
14735;DHT22;7458;49.002;8.472;2022-08-16T02:48:08;19.70;86.40
14735;DHT22;7458;49.002;8.472;2022-08-16T02:50:35;19.70;86.40
14735;DHT22;7458;49.002;8.472;2022-08-16T02:53:00;19.80;86.40
14735;DHT22;7458;49.002;8.472;2022-08-16T02:55:26;19.80;86.50
14735;DHT22;7458;49.002;8.472;2022-08-16T02:57:52;19.80;86.60
14735;DHT22;7458;49.002;8.472;2022-08-16T03:00:21;19.80;86.90
14735;DHT22;7458;49.002;8.472;2022-08-16T03:02:47;19.80;86.70
14735;DHT22;7458;49.002;8.472;2022-08-16T03:05:14;19.90;86.60
14735;DHT22;7458;49.002;8.472;2022-08-16T03:07:40;19.80;86.80
14735;DHT22;7458;49.002;8.472;2022-08-16T03:10:10;19.90;86.70
14735;DHT22;7458;49.002;8.472;2022-08-16T03:12:37;19.80;87.20
14735;DHT22;7458;49.002;8.472;2022-08-16T03:15:07;19.70;87.50
14735;DHT22;7458;49.002;8.472;2022-08-16T03:17:35;19.70;87.60
14735;DHT22;7458;49.002;8.472;2022-08-16T03:20:03;19.50;87.90
14735;DHT22;7458;49.002;8.472;2022-08-16T03:22:30;19.50;88.10
14735;DHT22;7458;49.002;8.472;2022-08-16T03:24:58;19.60;88.00
14735;DHT22;7458;49.002;8.472;2022-08-16T03:27:26;19.50;88.00
14735;DHT22;7458;49.002;8.472;2022-08-16T03:29:53;19.50;88.20
14735;DHT22;7458;49.002;8.472;2022-08-16T03:32:19;19.50;88.50
14735;DHT22;7458;49.002;8.472;2022-08-16T03:34:44;19.50;88.60
14735;DHT22;7458;49.002;8.472;2022-08-16T03:37:11;19.50;88.60
14735;DHT22;7458;49.002;8.472;2022-08-16T03:39:37;19.50;88.50
14735;DHT22;7458;49.002;8.472;2022-08-16T03:42:04;19.50;88.60
14735;DHT22;7458;49.002;8.472;2022-08-16T03:44:32;19.50;88.80
14735;DHT22;7458;49.002;8.472;2022-08-16T03:46:58;19.60;88.80
14735;DHT22;7458;49.002;8.472;2022-08-16T03:49:23;19.60;88.90
14735;DHT22;7458;49.002;8.472;2022-08-16T03:51:49;19.50;89.40
14735;DHT22;7458;49.002;8.472;2022-08-16T03:54:15;19.40;89.60
14735;DHT22;7458;49.002;8.472;2022-08-16T03:56:41;19.30;89.80
14735;DHT22;7458;49.002;8.472;2022-08-16T03:59:07;19.40;90.00
14735;DHT22;7458;49.002;8.472;2022-08-16T04:01:33;19.20;90.10
14735;DHT22;7458;49.002;8.472;2022-08-16T04:03:59;19.30;90.20
14735;DHT22;7458;49.002;8.472;2022-08-16T04:06:25;19.30;90.20
14735;DHT22;7458;49.002;8.472;2022-08-16T04:08:51;19.30;90.10
14735;DHT22;7458;49.002;8.472;2022-08-16T04:11:17;19.30;90.10
14735;DHT22;7458;49.002;8.472;2022-08-16T04:13:44;19.30;90.10
14735;DHT22;7458;49.002;8.472;2022-08-16T04:16:10;19.30;90.50
14735;DHT22;7458;49.002;8.472;2022-08-16T04:18:37;19.30;90.20
14735;DHT22;7458;49.002;8.472;2022-08-16T04:21:04;19.30;90.30
14735;DHT22;7458;49.002;8.472;2022-08-16T04:23:30;19.30;90.30
14735;DHT22;7458;49.002;8.472;2022-08-16T04:25:56;19.40;90.40
14735;DHT22;7458;49.002;8.472;2022-08-16T04:28:22;19.40;90.40
14735;DHT22;7458;49.002;8.472;2022-08-16T04:30:48;19.30;90.60
14735;DHT22;7458;49.002;8.472;2022-08-16T04:33:14;19.30;90.60
14735;DHT22;7458;49.002;8.472;2022-08-16T04:35:39;19.30;90.70
14735;DHT22;7458;49.002;8.472;2022-08-16T04:38:05;19.30;90.70
14735;DHT22;7458;49.002;8.472;2022-08-16T04:40:31;19.40;90.70
14735;DHT22;7458;49.002;8.472;2022-08-16T04:42:57;19.40;90.70
14735;DHT22;7458;49.002;8.472;2022-08-16T04:45:26;19.50;90.60
14735;DHT22;7458;49.002;8.472;2022-08-16T04:47:51;19.60;90.40
14735;DHT22;7458;49.002;8.472;2022-08-16T04:50:20;19.60;90.40
14735;DHT22;7458;49.002;8.472;2022-08-16T04:52:50;19.60;90.50
14735;DHT22;7458;49.002;8.472;2022-08-16T04:55:22;19.70;90.50
14735;DHT22;7458;49.002;8.472;2022-08-16T04:57:51;19.80;90.40
14735;DHT22;7458;49.002;8.472;2022-08-16T05:00:28;19.70;90.50
14735;DHT22;7458;49.002;8.472;2022-08-16T05:03:03;19.80;90.50
14735;DHT22;7458;49.002;8.472;2022-08-16T05:05:33;19.80;90.50
14735;DHT22;7458;49.002;8.472;2022-08-16T05:08:00;19.80;90.40
14735;DHT22;7458;49.002;8.472;2022-08-16T05:10:27;19.90;90.40
14735;DHT22;7458;49.002;8.472;2022-08-16T05:12:53;19.90;90.50
14735;DHT22;7458;49.002;8.472;2022-08-16T05:15:20;19.90;90.50
14735;DHT22;7458;49.002;8.472;2022-08-16T05:17:45;19.80;90.70
14735;DHT22;7458;49.002;8.472;2022-08-16T05:20:12;19.80;90.70
14735;DHT22;7458;49.002;8.472;2022-08-16T05:22:39;19.90;90.80
14735;DHT22;7458;49.002;8.472;2022-08-16T05:25:08;19.90;90.70
14735;DHT22;7458;49.002;8.472;2022-08-16T05:27:35;20.00;90.70
14735;DHT22;7458;49.002;8.472;2022-08-16T05:30:02;20.10;90.60
14735;DHT22;7458;49.002;8.472;2022-08-16T05:32:30;20.10;90.70
14735;DHT22;7458;49.002;8.472;2022-08-16T05:34:56;20.20;90.70
14735;DHT22;7458;49.002;8.472;2022-08-16T05:37:22;20.30;90.60
14735;DHT22;7458;49.002;8.472;2022-08-16T05:39:49;20.30;90.50
14735;DHT22;7458;49.002;8.472;2022-08-16T05:42:15;20.30;90.50
14735;DHT22;7458;49.002;8.472;2022-08-16T05:44:41;20.40;90.40
14735;DHT22;7458;49.002;8.472;2022-08-16T05:47:07;20.40;90.40
14735;DHT22;7458;49.002;8.472;2022-08-16T05:49:33;20.40;90.40
14735;DHT22;7458;49.002;8.472;2022-08-16T05:51:58;20.50;90.30
14735;DHT22;7458;49.002;8.472;2022-08-16T05:54:26;20.50;90.30
14735;DHT22;7458;49.002;8.472;2022-08-16T05:56:54;20.60;90.30
14735;DHT22;7458;49.002;8.472;2022-08-16T05:59:21;20.60;90.30
14735;DHT22;7458;49.002;8.472;2022-08-16T06:01:46;20.70;90.20
14735;DHT22;7458;49.002;8.472;2022-08-16T06:04:16;20.60;90.10
14735;DHT22;7458;49.002;8.472;2022-08-16T06:06:43;20.70;90.10
14735;DHT22;7458;49.002;8.472;2022-08-16T06:09:13;20.90;90.00
14735;DHT22;7458;49.002;8.472;2022-08-16T06:11:40;21.00;89.70
14735;DHT22;7458;49.002;8.472;2022-08-16T06:14:06;21.10;89.10
14735;DHT22;7458;49.002;8.472;2022-08-16T06:16:32;21.10;88.80
14735;DHT22;7458;49.002;8.472;2022-08-16T06:18:58;21.30;88.30
14735;DHT22;7458;49.002;8.472;2022-08-16T06:21:25;21.40;88.10
14735;DHT22;7458;49.002;8.472;2022-08-16T06:23:51;21.50;87.80
14735;DHT22;7458;49.002;8.472;2022-08-16T06:26:17;21.60;87.70
14735;DHT22;7458;49.002;8.472;2022-08-16T06:28:43;21.60;87.00
14735;DHT22;7458;49.002;8.472;2022-08-16T06:31:10;21.80;87.10
14735;DHT22;7458;49.002;8.472;2022-08-16T06:33:38;22.10;85.70
14735;DHT22;7458;49.002;8.472;2022-08-16T06:36:03;22.50;84.70
14735;DHT22;7458;49.002;8.472;2022-08-16T06:38:31;23.10;83.50
14735;DHT22;7458;49.002;8.472;2022-08-16T06:40:56;24.80;78.30
14735;DHT22;7458;49.002;8.472;2022-08-16T06:43:22;26.60;72.00
14735;DHT22;7458;49.002;8.472;2022-08-16T06:45:48;28.10;65.20
14735;DHT22;7458;49.002;8.472;2022-08-16T06:48:14;29.60;59.80
14735;DHT22;7458;49.002;8.472;2022-08-16T06:50:40;30.40;54.80
14735;DHT22;7458;49.002;8.472;2022-08-16T06:53:06;30.80;52.90
14735;DHT22;7458;49.002;8.472;2022-08-16T06:55:32;31.20;51.10
14735;DHT22;7458;49.002;8.472;2022-08-16T06:58:00;31.90;49.80
14735;DHT22;7458;49.002;8.472;2022-08-16T07:00:26;32.30;48.20
14735;DHT22;7458;49.002;8.472;2022-08-16T07:02:52;32.80;47.60
14735;DHT22;7458;49.002;8.472;2022-08-16T07:05:19;33.20;45.70
14735;DHT22;7458;49.002;8.472;2022-08-16T07:07:46;32.90;45.20
14735;DHT22;7458;49.002;8.472;2022-08-16T07:10:14;32.20;46.90
14735;DHT22;7458;49.002;8.472;2022-08-16T07:12:41;31.90;47.40
14735;DHT22;7458;49.002;8.472;2022-08-16T07:15:08;31.60;47.50
14735;DHT22;7458;49.002;8.472;2022-08-16T07:17:35;31.50;46.90
14735;DHT22;7458;49.002;8.472;2022-08-16T07:20:04;31.40;47.50
14735;DHT22;7458;49.002;8.472;2022-08-16T07:22:31;31.20;48.50
14735;DHT22;7458;49.002;8.472;2022-08-16T07:24:57;31.50;48.80
14735;DHT22;7458;49.002;8.472;2022-08-16T07:27:22;31.70;48.40
14735;DHT22;7458;49.002;8.472;2022-08-16T07:29:48;31.40;48.00
14735;DHT22;7458;49.002;8.472;2022-08-16T07:32:14;30.60;49.10
14735;DHT22;7458;49.002;8.472;2022-08-16T07:34:41;29.20;51.30
14735;DHT22;7458;49.002;8.472;2022-08-16T07:37:09;28.70;53.40
14735;DHT22;7458;49.002;8.472;2022-08-16T07:39:36;28.50;54.10
14735;DHT22;7458;49.002;8.472;2022-08-16T07:42:02;28.50;54.50
14735;DHT22;7458;49.002;8.472;2022-08-16T07:44:28;28.70;54.00
14735;DHT22;7458;49.002;8.472;2022-08-16T07:46:55;29.00;54.10
14735;DHT22;7458;49.002;8.472;2022-08-16T07:49:22;28.90;54.30
14735;DHT22;7458;49.002;8.472;2022-08-16T07:51:48;28.90;54.30
14735;DHT22;7458;49.002;8.472;2022-08-16T07:54:15;28.90;54.60
14735;DHT22;7458;49.002;8.472;2022-08-16T07:56:42;29.10;54.90
14735;DHT22;7458;49.002;8.472;2022-08-16T07:59:08;29.10;54.30
14735;DHT22;7458;49.002;8.472;2022-08-16T08:01:35;29.00;54.30
14735;DHT22;7458;49.002;8.472;2022-08-16T08:04:03;29.10;54.10
14735;DHT22;7458;49.002;8.472;2022-08-16T08:06:31;29.40;54.10
14735;DHT22;7458;49.002;8.472;2022-08-16T08:08:58;29.50;53.00
14735;DHT22;7458;49.002;8.472;2022-08-16T08:11:24;29.50;52.70
14735;DHT22;7458;49.002;8.472;2022-08-16T08:13:52;29.50;52.50
14735;DHT22;7458;49.002;8.472;2022-08-16T08:16:19;29.90;52.60
14735;DHT22;7458;49.002;8.472;2022-08-16T08:18:47;30.10;52.40
14735;DHT22;7458;49.002;8.472;2022-08-16T08:21:14;30.10;52.10
14735;DHT22;7458;49.002;8.472;2022-08-16T08:23:39;30.60;52.00
14735;DHT22;7458;49.002;8.472;2022-08-16T08:26:06;31.10;51.30
14735;DHT22;7458;49.002;8.472;2022-08-16T08:28:32;31.10;49.90
14735;DHT22;7458;49.002;8.472;2022-08-16T08:30:59;31.50;50.10
14735;DHT22;7458;49.002;8.472;2022-08-16T08:33:25;31.40;49.10
14735;DHT22;7458;49.002;8.472;2022-08-16T08:35:51;31.40;48.80
14735;DHT22;7458;49.002;8.472;2022-08-16T08:38:20;31.50;48.30
14735;DHT22;7458;49.002;8.472;2022-08-16T08:40:47;31.40;48.00
14735;DHT22;7458;49.002;8.472;2022-08-16T08:43:13;31.30;48.60
14735;DHT22;7458;49.002;8.472;2022-08-16T08:45:40;31.10;49.00
14735;DHT22;7458;49.002;8.472;2022-08-16T08:48:06;31.00;49.10
14735;DHT22;7458;49.002;8.472;2022-08-16T08:50:32;31.50;49.20
14735;DHT22;7458;49.002;8.472;2022-08-16T08:52:58;31.90;48.50
14735;DHT22;7458;49.002;8.472;2022-08-16T08:55:25;31.70;48.20
14735;DHT22;7458;49.002;8.472;2022-08-16T08:57:52;31.30;47.60
14735;DHT22;7458;49.002;8.472;2022-08-16T09:00:20;31.00;47.90
14735;DHT22;7458;49.002;8.472;2022-08-16T09:02:48;31.10;48.50
14735;DHT22;7458;49.002;8.472;2022-08-16T09:05:17;31.40;47.60
14735;DHT22;7458;49.002;8.472;2022-08-16T09:07:44;31.60;47.60
14735;DHT22;7458;49.002;8.472;2022-08-16T09:10:10;31.90;47.70
14735;DHT22;7458;49.002;8.472;2022-08-16T09:12:38;32.30;47.00
14735;DHT22;7458;49.002;8.472;2022-08-16T09:15:06;32.30;46.90
14735;DHT22;7458;49.002;8.472;2022-08-16T09:17:34;31.90;46.80
14735;DHT22;7458;49.002;8.472;2022-08-16T09:19:59;31.20;47.90
14735;DHT22;7458;49.002;8.472;2022-08-16T09:22:26;30.90;48.50
14735;DHT22;7458;49.002;8.472;2022-08-16T09:24:53;31.00;48.90
14735;DHT22;7458;49.002;8.472;2022-08-16T09:27:20;31.10;49.10
14735;DHT22;7458;49.002;8.472;2022-08-16T09:29:47;31.40;48.40
14735;DHT22;7458;49.002;8.472;2022-08-16T09:32:13;31.50;47.80
14735;DHT22;7458;49.002;8.472;2022-08-16T09:34:39;31.40;47.80
14735;DHT22;7458;49.002;8.472;2022-08-16T09:37:04;31.60;48.10
14735;DHT22;7458;49.002;8.472;2022-08-16T09:39:30;31.90;47.40
14735;DHT22;7458;49.002;8.472;2022-08-16T09:41:56;32.00;47.10
14735;DHT22;7458;49.002;8.472;2022-08-16T09:44:25;32.10;46.50
14735;DHT22;7458;49.002;8.472;2022-08-16T09:46:53;32.30;46.20
14735;DHT22;7458;49.002;8.472;2022-08-16T09:49:20;32.20;46.40
14735;DHT22;7458;49.002;8.472;2022-08-16T09:51:48;32.30;45.90
14735;DHT22;7458;49.002;8.472;2022-08-16T09:54:20;32.40;46.00
14735;DHT22;7458;49.002;8.472;2022-08-16T09:56:47;32.50;45.20
14735;DHT22;7458;49.002;8.472;2022-08-16T09:59:14;32.60;45.60
14735;DHT22;7458;49.002;8.472;2022-08-16T10:01:41;32.80;44.90
14735;DHT22;7458;49.002;8.472;2022-08-16T10:04:10;32.40;45.10
14735;DHT22;7458;49.002;8.472;2022-08-16T10:06:36;32.00;45.80
14735;DHT22;7458;49.002;8.472;2022-08-16T10:09:05;31.50;46.50
14735;DHT22;7458;49.002;8.472;2022-08-16T10:11:34;31.30;47.40
14735;DHT22;7458;49.002;8.472;2022-08-16T10:14:19;31.70;47.70
14735;DHT22;7458;49.002;8.472;2022-08-16T10:16:46;32.20;47.00
14735;DHT22;7458;49.002;8.472;2022-08-16T10:19:13;32.50;46.10
14735;DHT22;7458;49.002;8.472;2022-08-16T10:21:40;32.80;45.50
14735;DHT22;7458;49.002;8.472;2022-08-16T10:24:07;32.80;46.00
14735;DHT22;7458;49.002;8.472;2022-08-16T10:26:35;32.40;45.40
14735;DHT22;7458;49.002;8.472;2022-08-16T10:29:02;32.00;46.10
14735;DHT22;7458;49.002;8.472;2022-08-16T10:31:30;31.80;46.50
14735;DHT22;7458;49.002;8.472;2022-08-16T10:33:56;31.90;46.50
14735;DHT22;7458;49.002;8.472;2022-08-16T10:36:22;31.90;46.10
14735;DHT22;7458;49.002;8.472;2022-08-16T10:38:48;31.60;46.20
14735;DHT22;7458;49.002;8.472;2022-08-16T10:41:14;31.30;46.40
14735;DHT22;7458;49.002;8.472;2022-08-16T10:43:40;31.20;47.10
14735;DHT22;7458;49.002;8.472;2022-08-16T10:46:10;31.60;47.20
14735;DHT22;7458;49.002;8.472;2022-08-16T10:48:39;31.90;46.50
14735;DHT22;7458;49.002;8.472;2022-08-16T10:51:07;31.80;45.30
14735;DHT22;7458;49.002;8.472;2022-08-16T10:53:34;31.80;45.90
14735;DHT22;7458;49.002;8.472;2022-08-16T10:56:06;31.90;45.40
14735;DHT22;7458;49.002;8.472;2022-08-16T10:58:35;31.80;45.10
14735;DHT22;7458;49.002;8.472;2022-08-16T11:01:04;31.40;45.80
14735;DHT22;7458;49.002;8.472;2022-08-16T11:03:33;31.00;46.10
14735;DHT22;7458;49.002;8.472;2022-08-16T11:06:00;31.20;46.70
14735;DHT22;7458;49.002;8.472;2022-08-16T11:08:27;31.50;46.40
14735;DHT22;7458;49.002;8.472;2022-08-16T11:10:53;31.90;45.70
14735;DHT22;7458;49.002;8.472;2022-08-16T11:13:23;32.20;45.20
14735;DHT22;7458;49.002;8.472;2022-08-16T11:15:53;32.50;44.70
14735;DHT22;7458;49.002;8.472;2022-08-16T11:18:22;32.70;43.80
14735;DHT22;7458;49.002;8.472;2022-08-16T11:20:48;32.70;43.60
14735;DHT22;7458;49.002;8.472;2022-08-16T11:23:14;33.10;42.40
14735;DHT22;7458;49.002;8.472;2022-08-16T11:25:40;33.30;42.30
14735;DHT22;7458;49.002;8.472;2022-08-16T11:28:07;33.50;41.90
14735;DHT22;7458;49.002;8.472;2022-08-16T11:30:35;33.30;41.50
14735;DHT22;7458;49.002;8.472;2022-08-16T11:33:01;33.40;41.70
14735;DHT22;7458;49.002;8.472;2022-08-16T11:35:30;33.60;42.30
14735;DHT22;7458;49.002;8.472;2022-08-16T11:38:06;33.60;40.50
14735;DHT22;7458;49.002;8.472;2022-08-16T11:40:59;33.50;40.80
14735;DHT22;7458;49.002;8.472;2022-08-16T11:43:36;33.40;40.30
14735;DHT22;7458;49.002;8.472;2022-08-16T11:46:07;32.70;41.70
14735;DHT22;7458;49.002;8.472;2022-08-16T11:48:35;32.50;42.50
14735;DHT22;7458;49.002;8.472;2022-08-16T11:51:01;32.80;42.10
14735;DHT22;7458;49.002;8.472;2022-08-16T11:53:29;33.00;41.90
14735;DHT22;7458;49.002;8.472;2022-08-16T11:55:57;33.00;41.80
14735;DHT22;7458;49.002;8.472;2022-08-16T11:58:24;32.90;42.20
14735;DHT22;7458;49.002;8.472;2022-08-16T12:00:54;32.80;41.60
14735;DHT22;7458;49.002;8.472;2022-08-16T12:03:24;32.80;42.30
14735;DHT22;7458;49.002;8.472;2022-08-16T12:05:56;32.90;42.00
14735;DHT22;7458;49.002;8.472;2022-08-16T12:08:23;33.20;41.70
14735;DHT22;7458;49.002;8.472;2022-08-16T12:10:49;33.30;41.50
14735;DHT22;7458;49.002;8.472;2022-08-16T12:13:16;33.40;40.80
14735;DHT22;7458;49.002;8.472;2022-08-16T12:15:42;33.40;40.00
14735;DHT22;7458;49.002;8.472;2022-08-16T12:18:09;33.40;40.00
14735;DHT22;7458;49.002;8.472;2022-08-16T12:20:38;33.30;40.00
14735;DHT22;7458;49.002;8.472;2022-08-16T12:23:07;33.40;40.40
14735;DHT22;7458;49.002;8.472;2022-08-16T12:25:34;33.30;40.20
14735;DHT22;7458;49.002;8.472;2022-08-16T12:28:01;33.10;40.50
14735;DHT22;7458;49.002;8.472;2022-08-16T12:30:32;33.10;40.70
14735;DHT22;7458;49.002;8.472;2022-08-16T12:33:01;33.10;40.20
14735;DHT22;7458;49.002;8.472;2022-08-16T12:35:28;33.20;39.70
14735;DHT22;7458;49.002;8.472;2022-08-16T12:37:58;33.10;39.50
14735;DHT22;7458;49.002;8.472;2022-08-16T12:40:29;32.60;40.20
14735;DHT22;7458;49.002;8.472;2022-08-16T12:42:59;32.60;40.80
14735;DHT22;7458;49.002;8.472;2022-08-16T12:45:29;32.60;41.30
14735;DHT22;7458;49.002;8.472;2022-08-16T12:47:57;32.40;40.90
14735;DHT22;7458;49.002;8.472;2022-08-16T12:50:43;32.30;41.10
14735;DHT22;7458;49.002;8.472;2022-08-16T12:53:10;32.50;41.40
14735;DHT22;7458;49.002;8.472;2022-08-16T12:55:37;32.50;41.20
14735;DHT22;7458;49.002;8.472;2022-08-16T12:58:03;32.70;40.60
14735;DHT22;7458;49.002;8.472;2022-08-16T13:00:31;32.70;40.00
14735;DHT22;7458;49.002;8.472;2022-08-16T13:03:00;32.80;40.00
14735;DHT22;7458;49.002;8.472;2022-08-16T13:05:28;32.80;39.80
14735;DHT22;7458;49.002;8.472;2022-08-16T13:08:07;32.50;39.70
14735;DHT22;7458;49.002;8.472;2022-08-16T13:10:33;32.30;40.00
14735;DHT22;7458;49.002;8.472;2022-08-16T13:12:59;32.30;39.80
14735;DHT22;7458;49.002;8.472;2022-08-16T13:15:27;32.40;40.00
14735;DHT22;7458;49.002;8.472;2022-08-16T13:17:53;32.50;40.30
14735;DHT22;7458;49.002;8.472;2022-08-16T13:20:21;32.40;39.70
14735;DHT22;7458;49.002;8.472;2022-08-16T13:23:04;32.60;40.30
14735;DHT22;7458;49.002;8.472;2022-08-16T13:25:33;32.50;39.80
14735;DHT22;7458;49.002;8.472;2022-08-16T13:28:00;32.30;40.30
14735;DHT22;7458;49.002;8.472;2022-08-16T13:30:29;32.50;40.20
14735;DHT22;7458;49.002;8.472;2022-08-16T13:32:57;32.40;39.70
14735;DHT22;7458;49.002;8.472;2022-08-16T13:35:23;32.50;39.90
14735;DHT22;7458;49.002;8.472;2022-08-16T13:37:51;32.30;39.40
14735;DHT22;7458;49.002;8.472;2022-08-16T13:40:18;32.20;39.90
14735;DHT22;7458;49.002;8.472;2022-08-16T13:42:45;32.20;40.50
14735;DHT22;7458;49.002;8.472;2022-08-16T13:45:13;32.40;39.90
14735;DHT22;7458;49.002;8.472;2022-08-16T13:47:39;32.40;39.40
14735;DHT22;7458;49.002;8.472;2022-08-16T13:50:07;32.50;39.30
14735;DHT22;7458;49.002;8.472;2022-08-16T13:52:34;32.50;39.20
14735;DHT22;7458;49.002;8.472;2022-08-16T13:55:00;32.50;38.80
14735;DHT22;7458;49.002;8.472;2022-08-16T13:57:26;32.40;39.30
14735;DHT22;7458;49.002;8.472;2022-08-16T13:59:52;32.70;39.70
14735;DHT22;7458;49.002;8.472;2022-08-16T14:02:18;32.70;39.10
14735;DHT22;7458;49.002;8.472;2022-08-16T14:04:44;32.80;39.00
14735;DHT22;7458;49.002;8.472;2022-08-16T14:07:13;32.70;38.90
14735;DHT22;7458;49.002;8.472;2022-08-16T14:09:41;32.70;39.10
14735;DHT22;7458;49.002;8.472;2022-08-16T14:12:20;32.70;39.30
14735;DHT22;7458;49.002;8.472;2022-08-16T14:14:49;32.70;39.30
14735;DHT22;7458;49.002;8.472;2022-08-16T14:17:16;32.80;38.60
14735;DHT22;7458;49.002;8.472;2022-08-16T14:19:43;32.70;38.20
14735;DHT22;7458;49.002;8.472;2022-08-16T14:22:24;32.80;39.20
14735;DHT22;7458;49.002;8.472;2022-08-16T14:24:54;32.90;39.30
14735;DHT22;7458;49.002;8.472;2022-08-16T14:27:23;32.90;39.50
14735;DHT22;7458;49.002;8.472;2022-08-16T14:29:51;32.90;39.20
14735;DHT22;7458;49.002;8.472;2022-08-16T14:32:20;32.90;38.60
14735;DHT22;7458;49.002;8.472;2022-08-16T14:34:49;32.90;38.70
14735;DHT22;7458;49.002;8.472;2022-08-16T14:37:16;32.90;38.20
14735;DHT22;7458;49.002;8.472;2022-08-16T14:39:42;32.80;38.40
14735;DHT22;7458;49.002;8.472;2022-08-16T14:42:15;32.80;38.10
14735;DHT22;7458;49.002;8.472;2022-08-16T14:44:47;32.70;38.20
14735;DHT22;7458;49.002;8.472;2022-08-16T14:47:14;32.50;38.20
14735;DHT22;7458;49.002;8.472;2022-08-16T14:49:41;32.50;38.30
14735;DHT22;7458;49.002;8.472;2022-08-16T14:52:11;32.50;38.60
14735;DHT22;7458;49.002;8.472;2022-08-16T14:54:41;32.30;38.40
14735;DHT22;7458;49.002;8.472;2022-08-16T14:57:08;32.30;38.70
14735;DHT22;7458;49.002;8.472;2022-08-16T14:59:35;32.40;38.70
14735;DHT22;7458;49.002;8.472;2022-08-16T15:02:01;32.20;39.10
14735;DHT22;7458;49.002;8.472;2022-08-16T15:04:30;32.20;38.80
14735;DHT22;7458;49.002;8.472;2022-08-16T15:06:57;32.30;39.10
14735;DHT22;7458;49.002;8.472;2022-08-16T15:09:23;32.30;38.90
14735;DHT22;7458;49.002;8.472;2022-08-16T15:11:49;32.30;38.90
14735;DHT22;7458;49.002;8.472;2022-08-16T15:14:16;32.30;38.90
14735;DHT22;7458;49.002;8.472;2022-08-16T15:16:42;32.20;38.60
14735;DHT22;7458;49.002;8.472;2022-08-16T15:19:08;32.30;38.70
14735;DHT22;7458;49.002;8.472;2022-08-16T15:21:34;32.60;38.30
14735;DHT22;7458;49.002;8.472;2022-08-16T15:24:01;32.10;38.50
14735;DHT22;7458;49.002;8.472;2022-08-16T15:26:29;32.10;38.40
14735;DHT22;7458;49.002;8.472;2022-08-16T15:28:55;32.20;38.50
14735;DHT22;7458;49.002;8.472;2022-08-16T15:31:24;32.20;38.50
14735;DHT22;7458;49.002;8.472;2022-08-16T15:33:52;32.10;38.40
14735;DHT22;7458;49.002;8.472;2022-08-16T15:36:19;32.10;38.60
14735;DHT22;7458;49.002;8.472;2022-08-16T15:38:49;32.00;38.80
14735;DHT22;7458;49.002;8.472;2022-08-16T15:44:12;32.10;38.90
14735;DHT22;7458;49.002;8.472;2022-08-16T15:46:40;32.20;38.80
14735;DHT22;7458;49.002;8.472;2022-08-16T15:49:06;32.00;38.90
14735;DHT22;7458;49.002;8.472;2022-08-16T15:51:33;32.00;38.90